Time;durP1;ratioP1;P1;durP2;ratioP2;P2;SDS_P1;SDS_P2;PMS_P1;PMS_P2;Temp;Humidity;BMP_temperature;BMP_pressure;BME280_temperature;BME280_humidity;BME280_pressure;Samples;Min_cycle;Max_cycle;Signal;HPM_P1;HPM_P2
2022/07/29 00:01:49;;;;;;;;;;;16.80;99.90;;;;;;5055407;28;19912;-78
2022/07/29 00:04:14;;;;;;;;;;;16.70;99.90;;;;;;5052189;28;19908;-73
2022/07/29 00:06:40;;;;;;;;;;;16.60;99.90;;;;;;5052620;28;20320;-73
2022/07/29 00:09:06;;;;;;;;;;;16.50;99.90;;;;;;5052392;28;19920;-74
2022/07/29 00:11:31;;;;;;;;;;;16.50;99.90;;;;;;5051706;28;20304;-74
2022/07/29 00:13:57;;;;;;;;;;;16.40;99.90;;;;;;5051922;28;19909;-78
2022/07/29 00:16:22;;;;;;;;;;;16.40;99.90;;;;;;5052396;28;20370;-74
2022/07/29 00:18:48;;;;;;;;;;;16.30;99.90;;;;;;5052438;28;19967;-74
2022/07/29 00:21:14;;;;;;;;;;;16.20;99.90;;;;;;5052109;28;19916;-77
2022/07/29 00:23:39;;;;;;;;;;;16.10;99.90;;;;;;5051099;28;20000;-77
2022/07/29 00:26:05;;;;;;;;;;;16.10;99.90;;;;;;5052255;28;20423;-74
2022/07/29 00:28:30;;;;;;;;;;;16.00;99.90;;;;;;5045530;28;19908;-73
2022/07/29 00:30:56;;;;;;;;;;;16.00;99.90;;;;;;5050957;28;20362;-74
2022/07/29 00:33:23;;;;;;;;;;;15.90;99.90;;;;;;5059155;28;19915;-78
2022/07/29 00:35:48;;;;;;;;;;;15.80;99.90;;;;;;5052141;28;20282;-74
2022/07/29 00:38:15;;;;;;;;;;;15.90;99.90;;;;;;5053689;28;19939;-74
2022/07/29 00:40:41;;;;;;;;;;;15.90;99.90;;;;;;5060208;28;20369;-74
2022/07/29 00:43:07;;;;;;;;;;;16.00;99.90;;;;;;5050829;28;19908;-74
2022/07/29 00:45:32;;;;;;;;;;;15.90;99.90;;;;;;5050615;28;20035;-74
2022/07/29 00:47:58;;;;;;;;;;;15.90;99.90;;;;;;5052013;28;19920;-78
2022/07/29 00:50:24;;;;;;;;;;;15.80;99.90;;;;;;5051810;28;19912;-74
2022/07/29 00:52:50;;;;;;;;;;;15.90;99.90;;;;;;5051226;28;20003;-74
2022/07/29 00:55:16;;;;;;;;;;;15.80;99.90;;;;;;5049052;28;19909;-75
2022/07/29 00:57:42;;;;;;;;;;;15.70;99.90;;;;;;5048528;28;19909;-75
2022/07/29 01:00:09;;;;;;;;;;;15.70;99.90;;;;;;5048162;28;19913;-75
2022/07/29 01:02:34;;;;;;;;;;;15.70;99.90;;;;;;5048274;28;19909;-77
2022/07/29 01:05:01;;;;;;;;;;;15.70;99.90;;;;;;5044953;28;19954;-78
2022/07/29 01:07:26;;;;;;;;;;;15.60;99.90;;;;;;5040069;28;19921;-78
2022/07/29 01:09:53;;;;;;;;;;;15.50;99.90;;;;;;5048079;28;19919;-76
2022/07/29 01:12:21;;;;;;;;;;;15.40;99.90;;;;;;5050266;28;20429;-75
2022/07/29 01:14:47;;;;;;;;;;;15.40;99.90;;;;;;5050949;28;19908;-78
2022/07/29 01:17:17;;;;;;;;;;;15.40;99.90;;;;;;5050214;28;19917;-78
2022/07/29 01:20:01;;;;;;;;;;;15.40;99.90;;;;;;5051478;28;20011;-77
2022/07/29 01:22:36;;;;;;;;;;;15.40;99.90;;;;;;5047156;28;19915;-77
2022/07/29 01:25:20;;;;;;;;;;;15.30;99.90;;;;;;5037620;28;20319;-74
2022/07/29 01:27:45;;;;;;;;;;;15.20;99.90;;;;;;5046948;28;20285;-74
2022/07/29 01:30:11;;;;;;;;;;;15.20;99.90;;;;;;5050868;28;19909;-77
2022/07/29 01:32:38;;;;;;;;;;;15.10;99.90;;;;;;5050792;28;20003;-74
2022/07/29 01:35:10;;;;;;;;;;;15.20;99.90;;;;;;5050039;28;19909;-74
2022/07/29 01:37:43;;;;;;;;;;;15.20;99.90;;;;;;5050669;28;19917;-75
2022/07/29 01:40:28;;;;;;;;;;;15.10;99.90;;;;;;5051112;28;19920;-77
2022/07/29 01:42:55;;;;;;;;;;;15.10;99.90;;;;;;5050628;28;19909;-79
2022/07/29 01:45:39;;;;;;;;;;;15.10;99.90;;;;;;5050676;28;19909;-73
2022/07/29 01:48:25;;;;;;;;;;;15.10;99.90;;;;;;5051042;28;19917;-74
2022/07/29 01:51:01;;;;;;;;;;;15.10;99.90;;;;;;5049140;28;19917;-74
2022/07/29 01:53:42;;;;;;;;;;;15.10;99.90;;;;;;5050124;28;20328;-74
2022/07/29 01:56:08;;;;;;;;;;;15.10;99.90;;;;;;5044338;28;19999;-79
2022/07/29 01:58:35;;;;;;;;;;;15.10;99.90;;;;;;5049622;28;19916;-74
2022/07/29 02:01:01;;;;;;;;;;;15.10;99.90;;;;;;5051001;28;20281;-74
2022/07/29 02:03:27;;;;;;;;;;;15.10;99.90;;;;;;5050000;28;19931;-74
2022/07/29 02:05:53;;;;;;;;;;;15.10;99.90;;;;;;5050564;28;20294;-74
2022/07/29 02:08:19;;;;;;;;;;;15.10;99.90;;;;;;5050364;28;20389;-74
2022/07/29 02:10:45;;;;;;;;;;;15.10;99.90;;;;;;5051266;28;20078;-74
2022/07/29 02:13:12;;;;;;;;;;;15.00;99.90;;;;;;5049571;28;20263;-74
2022/07/29 02:15:38;;;;;;;;;;;14.90;99.90;;;;;;5051693;28;20396;-74
2022/07/29 02:18:12;;;;;;;;;;;15.00;99.90;;;;;;5054847;28;20015;-74
2022/07/29 02:20:39;;;;;;;;;;;15.00;99.90;;;;;;5053428;28;20302;-78
2022/07/29 02:23:07;;;;;;;;;;;15.00;99.90;;;;;;5053787;28;19909;-73
2022/07/29 02:25:32;;;;;;;;;;;15.00;99.90;;;;;;5054560;28;20288;-77
2022/07/29 02:27:58;;;;;;;;;;;15.00;99.90;;;;;;5054539;28;19909;-74
2022/07/29 02:30:24;;;;;;;;;;;15.00;99.90;;;;;;5054630;28;19912;-73
2022/07/29 02:32:51;;;;;;;;;;;14.90;99.90;;;;;;5054275;28;20004;-73
2022/07/29 02:35:16;;;;;;;;;;;15.00;99.90;;;;;;5054158;28;19908;-77
2022/07/29 02:37:44;;;;;;;;;;;15.00;99.90;;;;;;5055994;28;19909;-74
2022/07/29 02:40:14;;;;;;;;;;;14.90;99.90;;;;;;5054295;28;19915;-74
2022/07/29 02:42:42;;;;;;;;;;;14.90;99.90;;;;;;5054071;28;19944;-74
2022/07/29 02:45:08;;;;;;;;;;;14.90;99.90;;;;;;5053751;28;19909;-74
2022/07/29 02:47:36;;;;;;;;;;;14.90;99.90;;;;;;5054610;28;19916;-74
2022/07/29 02:50:04;;;;;;;;;;;14.80;99.90;;;;;;5054559;28;19963;-74
2022/07/29 02:52:36;;;;;;;;;;;14.90;99.90;;;;;;5053427;28;20392;-74
2022/07/29 02:55:10;;;;;;;;;;;14.80;99.90;;;;;;5053515;28;19909;-74
2022/07/29 02:57:44;;;;;;;;;;;14.80;99.90;;;;;;5047082;28;20278;-74
2022/07/29 03:00:10;;;;;;;;;;;14.90;99.90;;;;;;5054119;28;20380;-74
2022/07/29 03:02:44;;;;;;;;;;;14.90;99.90;;;;;;5053624;28;19916;-74
2022/07/29 03:05:12;;;;;;;;;;;14.80;99.90;;;;;;5053117;28;19909;-76
2022/07/29 03:07:39;;;;;;;;;;;14.70;99.90;;;;;;5056169;28;19924;-74
2022/07/29 03:10:06;;;;;;;;;;;14.70;99.90;;;;;;5053819;28;19909;-74
2022/07/29 03:12:32;;;;;;;;;;;14.60;99.90;;;;;;5049324;28;19945;-77
2022/07/29 03:14:58;;;;;;;;;;;14.70;99.90;;;;;;5053081;28;19913;-78
2022/07/29 03:17:24;;;;;;;;;;;14.60;99.90;;;;;;5053578;28;20461;-74
2022/07/29 03:19:49;;;;;;;;;;;14.60;99.90;;;;;;5053732;28;20027;-77
2022/07/29 03:22:15;;;;;;;;;;;14.60;99.90;;;;;;5052946;28;20392;-74
2022/07/29 03:24:41;;;;;;;;;;;14.50;99.90;;;;;;5052997;28;20281;-74
2022/07/29 03:27:06;;;;;;;;;;;14.50;99.90;;;;;;5052591;28;20343;-74
2022/07/29 03:29:32;;;;;;;;;;;14.50;99.90;;;;;;5053006;28;19916;-78
2022/07/29 03:31:57;;;;;;;;;;;14.60;99.90;;;;;;5052688;28;19982;-74
2022/07/29 03:34:23;;;;;;;;;;;14.50;99.90;;;;;;5052894;28;19917;-74
2022/07/29 03:36:48;;;;;;;;;;;14.50;99.90;;;;;;5052752;28;19917;-74
2022/07/29 03:39:20;;;;;;;;;;;14.40;99.90;;;;;;5058268;28;19909;-77
2022/07/29 03:41:47;;;;;;;;;;;14.30;99.90;;;;;;5046444;28;19909;-75
2022/07/29 03:44:13;;;;;;;;;;;14.30;99.90;;;;;;5046613;28;19909;-74
2022/07/29 03:46:39;;;;;;;;;;;14.30;99.90;;;;;;5046389;28;19912;-74
2022/07/29 03:49:08;;;;;;;;;;;14.30;99.90;;;;;;5046274;28;19908;-73
2022/07/29 03:51:33;;;;;;;;;;;14.20;99.90;;;;;;5052497;28;20442;-74
2022/07/29 03:53:59;;;;;;;;;;;14.20;99.90;;;;;;5052116;28;19916;-74
2022/07/29 03:56:26;;;;;;;;;;;14.20;99.90;;;;;;5052846;28;19944;-76
2022/07/29 03:58:52;;;;;;;;;;;14.30;99.90;;;;;;5053307;28;20326;-74
2022/07/29 04:01:18;;;;;;;;;;;14.20;99.90;;;;;;5052395;28;19913;-74
2022/07/29 04:03:47;;;;;;;;;;;14.10;99.90;;;;;;5052446;28;19908;-74
2022/07/29 04:06:13;;;;;;;;;;;14.10;99.90;;;;;;5051470;28;19954;-74
2022/07/29 04:08:38;;;;;;;;;;;14.00;99.90;;;;;;5060566;28;20292;-74
2022/07/29 04:11:04;;;;;;;;;;;14.00;99.90;;;;;;5052629;28;20497;-74
2022/07/29 04:13:30;;;;;;;;;;;14.10;99.90;;;;;;5051607;28;19916;-74
2022/07/29 04:15:55;;;;;;;;;;;14.00;99.90;;;;;;5052983;28;19909;-74
2022/07/29 04:18:21;;;;;;;;;;;14.00;99.90;;;;;;5052657;28;19919;-76
2022/07/29 04:20:46;;;;;;;;;;;14.00;99.90;;;;;;5052759;28;19913;-74
2022/07/29 04:23:12;;;;;;;;;;;14.00;99.90;;;;;;5051275;28;19955;-74
2022/07/29 04:25:38;;;;;;;;;;;14.00;99.90;;;;;;5051087;28;19909;-75
2022/07/29 04:28:04;;;;;;;;;;;14.10;99.90;;;;;;5052586;28;19909;-74
2022/07/29 04:30:30;;;;;;;;;;;14.10;99.90;;;;;;5050914;28;19913;-74
2022/07/29 04:32:56;;;;;;;;;;;14.10;99.90;;;;;;5050607;28;20356;-74
2022/07/29 04:35:22;;;;;;;;;;;14.20;99.90;;;;;;5054402;28;19936;-75
2022/07/29 04:37:47;;;;;;;;;;;14.20;99.90;;;;;;5055525;28;19909;-77
2022/07/29 04:40:13;;;;;;;;;;;14.20;99.90;;;;;;5050373;28;19909;-73
2022/07/29 04:42:38;;;;;;;;;;;14.30;99.90;;;;;;5051454;28;19920;-75
2022/07/29 04:45:04;;;;;;;;;;;14.30;99.90;;;;;;5051280;28;20428;-74
2022/07/29 04:47:30;;;;;;;;;;;14.40;99.90;;;;;;5051663;28;20003;-75
2022/07/29 04:49:56;;;;;;;;;;;14.50;99.90;;;;;;5051866;28;20012;-74
2022/07/29 04:52:21;;;;;;;;;;;14.50;99.90;;;;;;5051056;28;19917;-73
2022/07/29 04:54:47;;;;;;;;;;;14.70;99.90;;;;;;5051056;28;19909;-73
2022/07/29 04:57:13;;;;;;;;;;;14.70;99.90;;;;;;5052051;28;20366;-76
2022/07/29 04:59:38;;;;;;;;;;;14.90;99.90;;;;;;5051303;28;20035;-74
2022/07/29 05:02:03;;;;;;;;;;;15.00;99.90;;;;;;5050819;28;19909;-76
2022/07/29 05:04:29;;;;;;;;;;;15.10;99.90;;;;;;5050982;28;19909;-74
2022/07/29 05:06:54;;;;;;;;;;;15.20;99.90;;;;;;5054076;28;19944;-75
2022/07/29 05:09:20;;;;;;;;;;;15.30;99.90;;;;;;5051062;28;19924;-77
2022/07/29 05:11:45;;;;;;;;;;;15.40;99.90;;;;;;5050940;28;19912;-74
2022/07/29 05:14:11;;;;;;;;;;;15.50;99.90;;;;;;5050632;28;20358;-74
2022/07/29 05:16:36;;;;;;;;;;;15.60;99.90;;;;;;5051285;28;19995;-75
2022/07/29 05:19:02;;;;;;;;;;;15.70;99.90;;;;;;5051275;28;20350;-74
2022/07/29 05:21:27;;;;;;;;;;;15.90;99.90;;;;;;5050642;28;19909;-74
2022/07/29 05:23:53;;;;;;;;;;;16.00;99.90;;;;;;5046312;28;20342;-74
2022/07/29 05:26:18;;;;;;;;;;;16.20;99.90;;;;;;5051246;28;19919;-77
2022/07/29 05:28:44;;;;;;;;;;;16.20;99.90;;;;;;5050937;28;19963;-74
2022/07/29 05:31:09;;;;;;;;;;;16.40;99.90;;;;;;5051041;28;19913;-74
2022/07/29 05:33:35;;;;;;;;;;;16.40;99.90;;;;;;5050140;28;19912;-74
2022/07/29 05:36:00;;;;;;;;;;;16.60;99.90;;;;;;5050051;28;20323;-77
2022/07/29 05:38:26;;;;;;;;;;;16.60;99.90;;;;;;5053144;28;20197;-74
2022/07/29 05:40:51;;;;;;;;;;;16.70;99.90;;;;;;5051372;28;19909;-74
2022/07/29 05:43:17;;;;;;;;;;;16.90;99.90;;;;;;5050058;28;20362;-75
2022/07/29 05:45:42;;;;;;;;;;;17.10;99.90;;;;;;5051245;28;19913;-74
2022/07/29 05:48:08;;;;;;;;;;;17.10;99.90;;;;;;5051046;28;20285;-74
2022/07/29 05:50:33;;;;;;;;;;;17.10;99.90;;;;;;5051787;28;19959;-74
2022/07/29 05:52:59;;;;;;;;;;;17.20;99.90;;;;;;5054232;28;20281;-78
2022/07/29 05:55:24;;;;;;;;;;;17.40;99.90;;;;;;5054546;28;19912;-74
2022/07/29 05:57:51;;;;;;;;;;;17.50;99.90;;;;;;5054902;28;19909;-74
2022/07/29 06:00:17;;;;;;;;;;;17.40;99.90;;;;;;5055033;28;20111;-76
2022/07/29 06:02:42;;;;;;;;;;;17.40;99.90;;;;;;5054367;28;19913;-74
2022/07/29 06:05:08;;;;;;;;;;;17.40;99.90;;;;;;5053512;28;19987;-74
2022/07/29 06:07:34;;;;;;;;;;;17.30;99.90;;;;;;5054230;28;19913;-77
2022/07/29 06:09:59;;;;;;;;;;;17.40;99.90;;;;;;5054899;28;19909;-75
2022/07/29 06:12:24;;;;;;;;;;;17.50;99.90;;;;;;5054147;28;20395;-75
2022/07/29 06:14:50;;;;;;;;;;;17.60;99.90;;;;;;5054319;28;19916;-74
2022/07/29 06:17:16;;;;;;;;;;;17.80;99.90;;;;;;5054710;28;19931;-75
2022/07/29 06:19:42;;;;;;;;;;;18.50;99.90;;;;;;5054495;28;20354;-78
2022/07/29 06:22:07;;;;;;;;;;;19.10;99.90;;;;;;5053862;28;20003;-74
2022/07/29 06:24:33;;;;;;;;;;;19.90;99.90;;;;;;5053879;28;19962;-74
2022/07/29 06:26:58;;;;;;;;;;;19.50;99.90;;;;;;5054260;28;19912;-75
2022/07/29 06:29:24;;;;;;;;;;;19.20;99.90;;;;;;5054062;28;19978;-79
2022/07/29 06:31:49;;;;;;;;;;;19.10;99.90;;;;;;5053570;28;19932;-75
2022/07/29 06:34:15;;;;;;;;;;;19.20;99.90;;;;;;5045088;28;19913;-75
2022/07/29 06:36:41;;;;;;;;;;;19.20;99.90;;;;;;5047519;28;19921;-75
2022/07/29 06:39:07;;;;;;;;;;;19.40;99.90;;;;;;5043768;28;19927;-75
2022/07/29 06:41:33;;;;;;;;;;;19.50;99.90;;;;;;5053520;28;19917;-75
2022/07/29 06:43:59;;;;;;;;;;;19.60;99.90;;;;;;5053708;28;19915;-74
2022/07/29 06:46:24;;;;;;;;;;;19.80;99.90;;;;;;5054234;28;19909;-77
2022/07/29 06:48:50;;;;;;;;;;;19.80;99.90;;;;;;5051714;28;20385;-74
2022/07/29 06:51:16;;;;;;;;;;;19.90;99.90;;;;;;5047892;28;19920;-75
2022/07/29 06:53:42;;;;;;;;;;;19.80;99.90;;;;;;5055669;28;19920;-75
2022/07/29 06:56:12;;;;;;;;;;;19.70;99.90;;;;;;5045061;28;19913;-74
2022/07/29 06:58:38;;;;;;;;;;;19.80;99.90;;;;;;5043140;28;19916;-75
2022/07/29 07:01:04;;;;;;;;;;;19.80;99.90;;;;;;5041510;28;19913;-75
2022/07/29 07:03:29;;;;;;;;;;;20.00;99.90;;;;;;5050255;28;20008;-74
2022/07/29 07:05:55;;;;;;;;;;;20.60;99.90;;;;;;5050648;28;19956;-76
2022/07/29 07:08:21;;;;;;;;;;;21.00;99.90;;;;;;5053850;28;19931;-74
2022/07/29 07:10:47;;;;;;;;;;;20.80;99.90;;;;;;5054868;28;19913;-77
2022/07/29 07:13:14;;;;;;;;;;;21.00;99.90;;;;;;5055913;28;19909;-78
2022/07/29 07:15:40;;;;;;;;;;;20.80;99.90;;;;;;5054695;28;19913;-75
2022/07/29 07:18:05;;;;;;;;;;;20.90;99.90;;;;;;5053158;28;20007;-78
2022/07/29 07:20:31;;;;;;;;;;;21.80;99.90;;;;;;5051471;28;19924;-78
2022/07/29 07:22:57;;;;;;;;;;;21.50;99.90;;;;;;5050744;28;19912;-74
2022/07/29 07:25:22;;;;;;;;;;;21.20;99.90;;;;;;5049040;28;19936;-74
2022/07/29 07:27:48;;;;;;;;;;;21.10;99.90;;;;;;5054082;28;20282;-74
2022/07/29 07:30:13;;;;;;;;;;;22.40;99.90;;;;;;5054080;28;19932;-76
2022/07/29 07:32:39;;;;;;;;;;;23.40;99.90;;;;;;5053144;28;19913;-75
2022/07/29 07:35:06;;;;;;;;;;;24.30;99.90;;;;;;5046885;28;19908;-74
2022/07/29 07:37:32;;;;;;;;;;;23.20;99.90;;;;;;5053080;28;19909;-77
2022/07/29 07:39:57;;;;;;;;;;;23.00;99.90;;;;;;5053726;28;20396;-80
2022/07/29 07:42:23;;;;;;;;;;;22.80;99.90;;;;;;5052258;28;19917;-75
2022/07/29 07:44:49;;;;;;;;;;;23.90;99.90;;;;;;5054260;28;19913;-75
2022/07/29 07:47:19;;;;;;;;;;;24.60;99.90;;;;;;5054122;28;19959;-76
2022/07/29 07:49:48;;;;;;;;;;;24.60;99.90;;;;;;5057866;28;19931;-74
2022/07/29 07:52:15;;;;;;;;;;;24.60;99.90;;;;;;5052368;28;20336;-77
2022/07/29 07:54:40;;;;;;;;;;;24.40;99.90;;;;;;5054224;28;19955;-76
2022/07/29 07:57:06;;;;;;;;;;;24.70;99.90;;;;;;5051457;28;20278;-75
2022/07/29 07:59:32;;;;;;;;;;;25.10;99.90;;;;;;5050441;28;19909;-75
2022/07/29 08:01:57;;;;;;;;;;;25.80;99.90;;;;;;5047808;28;19976;-74
2022/07/29 08:04:23;;;;;;;;;;;26.50;99.90;;;;;;5055995;28;19916;-75
2022/07/29 08:06:49;;;;;;;;;;;26.80;99.90;;;;;;5058283;28;20390;-78
2022/07/29 08:09:15;;;;;;;;;;;26.80;99.90;;;;;;5053682;28;20122;-75
2022/07/29 08:11:40;;;;;;;;;;;26.80;99.90;;;;;;5052478;28;19996;-78
2022/07/29 08:14:06;;;;;;;;;;;26.50;99.90;;;;;;5053271;28;20378;-76
2022/07/29 08:16:31;;;;;;;;;;;25.30;99.90;;;;;;5054181;28;20358;-75
2022/07/29 08:18:57;;;;;;;;;;;24.90;99.90;;;;;;5044459;28;19913;-76
2022/07/29 08:21:23;;;;;;;;;;;25.70;99.90;;;;;;5055394;28;19915;-77
2022/07/29 08:23:52;;;;;;;;;;;26.20;99.90;;;;;;5052892;28;19917;-77
2022/07/29 08:26:18;;;;;;;;;;;27.00;99.90;;;;;;5052508;28;19909;-75
2022/07/29 08:28:45;;;;;;;;;;;26.80;99.90;;;;;;5053256;28;19909;-75
2022/07/29 08:31:12;;;;;;;;;;;27.10;99.70;;;;;;5053990;28;20458;-78
2022/07/29 08:33:38;;;;;;;;;;;27.40;99.90;;;;;;5052764;28;19951;-76
2022/07/29 08:36:04;;;;;;;;;;;28.30;97.50;;;;;;5057884;28;20425;-77
2022/07/29 08:38:29;;;;;;;;;;;28.90;99.80;;;;;;5053280;28;19912;-74
2022/07/29 08:40:55;;;;;;;;;;;27.90;95.30;;;;;;5054027;28;20328;-80
2022/07/29 08:43:21;;;;;;;;;;;27.40;94.80;;;;;;5048043;28;19917;-75
2022/07/29 08:45:48;;;;;;;;;;;28.20;97.20;;;;;;5057804;28;19912;-76
2022/07/29 08:48:17;;;;;;;;;;;28.80;95.60;;;;;;5052630;28;19909;-79
2022/07/29 08:50:44;;;;;;;;;;;29.20;95.00;;;;;;5050246;28;20016;-74
2022/07/29 08:53:11;;;;;;;;;;;29.10;90.50;;;;;;5051963;28;19915;-75
2022/07/29 08:55:39;;;;;;;;;;;29.90;94.30;;;;;;5052542;28;20274;-76
2022/07/29 08:58:04;;;;;;;;;;;30.30;93.50;;;;;;5053971;28;20004;-76
2022/07/29 09:00:30;;;;;;;;;;;30.30;93.60;;;;;;5053272;28;19944;-78
2022/07/29 09:02:57;;;;;;;;;;;30.00;88.30;;;;;;5050794;28;19913;-79
2022/07/29 09:05:23;;;;;;;;;;;29.20;86.50;;;;;;5053302;28;19912;-75
2022/07/29 09:07:49;;;;;;;;;;;29.00;88.00;;;;;;5051794;28;20285;-75
2022/07/29 09:10:15;;;;;;;;;;;29.60;86.20;;;;;;5051751;28;19909;-75
2022/07/29 09:12:40;;;;;;;;;;;29.60;91.80;;;;;;5050940;28;19908;-76
2022/07/29 09:15:06;;;;;;;;;;;29.30;89.10;;;;;;5043773;28;19909;-76
2022/07/29 09:17:48;;;;;;;;;;;29.70;90.80;;;;;;5056919;28;19920;-76
2022/07/29 09:20:18;;;;;;;;;;;30.60;89.30;;;;;;5043274;28;20397;-77
2022/07/29 09:22:48;;;;;;;;;;;31.10;88.90;;;;;;5055026;28;20000;-77
2022/07/29 09:25:14;;;;;;;;;;;30.40;87.70;;;;;;5051071;28;19908;-77
2022/07/29 09:27:40;;;;;;;;;;;31.90;90.40;;;;;;5051708;28;20047;-77
2022/07/29 09:30:07;;;;;;;;;;;30.00;85.20;;;;;;5049868;28;19912;-75
2022/07/29 09:32:33;;;;;;;;;;;30.30;89.40;;;;;;5034693;28;20316;-76
2022/07/29 09:35:15;;;;;;;;;;;28.40;88.80;;;;;;5046996;28;20511;-76
2022/07/29 09:37:40;;;;;;;;;;;28.20;93.90;;;;;;5050099;28;19909;-76
2022/07/29 09:40:13;;;;;;;;;;;27.30;91.70;;;;;;5051259;28;19916;-76
2022/07/29 09:42:38;;;;;;;;;;;27.10;96.00;;;;;;5049500;28;19909;-76
2022/07/29 09:45:04;;;;;;;;;;;27.30;92.40;;;;;;5050567;28;19912;-76
2022/07/29 09:47:47;;;;;;;;;;;27.60;94.40;;;;;;5053389;28;20338;-76
2022/07/29 09:50:13;;;;;;;;;;;27.80;95.90;;;;;;5044527;28;19971;-75
2022/07/29 09:52:45;;;;;;;;;;;27.70;93.00;;;;;;5051643;28;19916;-76
2022/07/29 09:55:11;;;;;;;;;;;27.90;92.60;;;;;;5044994;28;20374;-75
2022/07/29 09:57:36;;;;;;;;;;;27.70;93.90;;;;;;5050925;28;19923;-76
2022/07/29 10:00:08;;;;;;;;;;;28.80;92.50;;;;;;5051256;28;19955;-76
2022/07/29 10:02:34;;;;;;;;;;;30.00;91.40;;;;;;5046721;28;20388;-76
2022/07/29 10:05:01;;;;;;;;;;;31.20;90.00;;;;;;5047272;28;19909;-76
2022/07/29 10:07:42;;;;;;;;;;;31.40;84.00;;;;;;5043383;28;20457;-76
2022/07/29 10:10:08;;;;;;;;;;;31.60;87.30;;;;;;5050562;28;19916;-77
2022/07/29 10:12:33;;;;;;;;;;;32.10;90.80;;;;;;5049889;28;19913;-77
2022/07/29 10:15:01;;;;;;;;;;;32.40;86.60;;;;;;5050829;28;20165;-77
2022/07/29 10:17:27;;;;;;;;;;;31.90;79.20;;;;;;5047138;28;20307;-76
2022/07/29 10:19:52;;;;;;;;;;;30.50;88.80;;;;;;5049663;28;19912;-76
2022/07/29 10:22:18;;;;;;;;;;;32.10;84.60;;;;;;5051092;28;20254;-78
2022/07/29 10:24:44;;;;;;;;;;;32.60;82.10;;;;;;5051350;28;19966;-78
2022/07/29 10:27:10;;;;;;;;;;;32.70;79.30;;;;;;5052748;28;19961;-75
2022/07/29 10:29:36;;;;;;;;;;;31.10;84.40;;;;;;5051346;28;19909;-77
2022/07/29 10:32:10;;;;;;;;;;;31.20;81.10;;;;;;5051702;28;19920;-76
2022/07/29 10:34:36;;;;;;;;;;;30.40;87.70;;;;;;5050583;28;19909;-76
2022/07/29 10:37:14;;;;;;;;;;;29.10;85.80;;;;;;5054030;28;19931;-76
2022/07/29 10:39:45;;;;;;;;;;;28.90;90.60;;;;;;5054800;28;20990;-75
2022/07/29 10:42:11;;;;;;;;;;;29.30;91.10;;;;;;5053233;28;19961;-75
2022/07/29 10:44:39;;;;;;;;;;;29.30;82.60;;;;;;5057608;28;20011;-76
2022/07/29 10:47:04;;;;;;;;;;;28.80;81.00;;;;;;5056366;28;20001;-76
2022/07/29 10:49:30;;;;;;;;;;;28.20;90.00;;;;;;5055676;28;19912;-77
2022/07/29 10:51:55;;;;;;;;;;;26.90;86.70;;;;;;5055713;28;20425;-77
2022/07/29 10:54:39;;;;;;;;;;;25.50;86.50;;;;;;5056257;28;20317;-77
2022/07/29 10:57:14;;;;;;;;;;;24.90;90.60;;;;;;5049011;28;19909;-76
2022/07/29 10:59:40;;;;;;;;;;;24.50;90.50;;;;;;5055084;28;20293;-75
2022/07/29 11:02:28;;;;;;;;;;;23.60;93.70;;;;;;5057828;28;19909;-75
2022/07/29 11:04:54;;;;;;;;;;;;;;;;;;5049292;28;19908;-75
2022/07/29 11:07:20;;;;;;;;;;;19.00;99.90;;;;;;5054350;28;19954;-75
2022/07/29 11:10:05;;;;;;;;;;;17.60;99.90;;;;;;5054635;28;19935;-75
2022/07/29 11:12:37;;;;;;;;;;;17.70;99.90;;;;;;5053488;28;20004;-75
2022/07/29 11:15:04;;;;;;;;;;;17.70;99.90;;;;;;5053926;28;19916;-75
2022/07/29 11:17:50;;;;;;;;;;;17.30;99.90;;;;;;5054775;28;19955;-74
2022/07/29 11:20:31;;;;;;;;;;;17.60;99.90;;;;;;5048018;28;19962;-75
2022/07/29 11:22:56;;;;;;;;;;;17.60;99.90;;;;;;5048937;28;19909;-75
2022/07/29 11:25:22;;;;;;;;;;;17.40;99.90;;;;;;5053560;28;20259;-72
2022/07/29 11:27:47;;;;;;;;;;;16.70;99.90;;;;;;5044143;28;20551;-76
2022/07/29 11:30:13;;;;;;;;;;;16.90;99.90;;;;;;5050984;28;19954;-74
2022/07/29 11:32:40;;;;;;;;;;;17.20;99.90;;;;;;5051952;28;19913;-76
2022/07/29 11:35:24;;;;;;;;;;;17.50;99.90;;;;;;5053716;28;19970;-74
2022/07/29 11:38:23;;;;;;;;;;;17.70;99.90;;;;;;5053080;28;19912;-75
2022/07/29 11:41:07;;;;;;;;;;;17.40;99.90;;;;;;5052748;28;20015;-73
2022/07/29 11:43:48;;;;;;;;;;;17.20;99.90;;;;;;5048545;28;20013;-74
2022/07/29 11:46:14;;;;;;;;;;;17.20;99.90;;;;;;5052164;28;19909;-75
2022/07/29 11:48:43;;;;;;;;;;;17.10;99.90;;;;;;5051639;28;20251;-74
2022/07/29 11:51:09;;;;;;;;;;;17.00;99.90;;;;;;5053413;28;19913;-74
2022/07/29 11:53:35;;;;;;;;;;;17.30;99.90;;;;;;5051116;28;19908;-74
2022/07/29 11:56:01;;;;;;;;;;;17.50;99.90;;;;;;5052845;28;19962;-75
2022/07/29 11:58:27;;;;;;;;;;;17.40;99.90;;;;;;5047037;28;19952;-75
2022/07/29 12:00:52;;;;;;;;;;;17.60;99.90;;;;;;5051907;28;20385;-75
2022/07/29 12:03:25;;;;;;;;;;;17.60;99.90;;;;;;5053916;28;19916;-76
2022/07/29 12:05:51;;;;;;;;;;;17.70;99.90;;;;;;5054773;28;19970;-75
2022/07/29 12:08:19;;;;;;;;;;;17.70;99.90;;;;;;5053390;28;19921;-75
2022/07/29 12:10:46;;;;;;;;;;;18.00;99.90;;;;;;5052640;28;19955;-74
2022/07/29 12:13:12;;;;;;;;;;;18.10;99.90;;;;;;5051582;28;19909;-74
2022/07/29 12:15:38;;;;;;;;;;;18.10;99.90;;;;;;5053695;28;20312;-74
2022/07/29 12:18:12;;;;;;;;;;;18.30;99.90;;;;;;5055293;28;19909;-74
2022/07/29 12:20:39;;;;;;;;;;;18.50;99.90;;;;;;5056984;28;19966;-75
2022/07/29 12:23:06;;;;;;;;;;;18.60;99.90;;;;;;5069853;28;20092;-78
2022/07/29 12:25:33;;;;;;;;;;;18.70;99.90;;;;;;5070882;28;20007;-75
2022/07/29 12:27:59;;;;;;;;;;;18.90;99.90;;;;;;5051971;28;19915;-74
2022/07/29 12:30:34;;;;;;;;;;;19.00;99.90;;;;;;5051063;28;19909;-74
2022/07/29 12:33:00;;;;;;;;;;;19.30;99.90;;;;;;5052115;28;19919;-74
2022/07/29 12:35:25;;;;;;;;;;;19.50;99.90;;;;;;5051289;28;19913;-74
2022/07/29 12:37:52;;;;;;;;;;;19.20;99.90;;;;;;5050571;28;19908;-76
2022/07/29 12:40:17;;;;;;;;;;;19.40;99.90;;;;;;5052244;28;19913;-74
2022/07/29 12:43:01;;;;;;;;;;;19.30;99.90;;;;;;5049483;28;20015;-75
2022/07/29 12:45:30;;;;;;;;;;;19.40;99.90;;;;;;5049257;28;19929;-74
2022/07/29 12:47:56;;;;;;;;;;;19.30;99.90;;;;;;5044694;28;19915;-74
2022/07/29 12:50:21;;;;;;;;;;;19.30;99.90;;;;;;5054915;28;19920;-75
2022/07/29 12:52:47;;;;;;;;;;;19.40;99.90;;;;;;5049856;28;20000;-75
2022/07/29 12:55:13;;;;;;;;;;;19.30;99.90;;;;;;5049484;28;19917;-75
2022/07/29 12:57:48;;;;;;;;;;;19.30;99.90;;;;;;5049348;28;19913;-72
2022/07/29 13:00:14;;;;;;;;;;;19.00;99.90;;;;;;5049144;28;19916;-73
2022/07/29 13:02:41;;;;;;;;;;;18.70;99.90;;;;;;5050941;28;19913;-74
2022/07/29 13:05:08;;;;;;;;;;;18.50;99.90;;;;;;5049206;28;20023;-73
2022/07/29 13:07:37;;;;;;;;;;;18.40;99.90;;;;;;5051386;28;20282;-73
2022/07/29 13:10:15;;;;;;;;;;;18.50;99.90;;;;;;5051451;28;19909;-73
2022/07/29 13:13:01;;;;;;;;;;;18.60;99.90;;;;;;5050998;28;19913;-74
2022/07/29 13:15:27;;;;;;;;;;;18.40;99.90;;;;;;5048167;28;20301;-74
2022/07/29 13:17:52;;;;;;;;;;;18.70;99.90;;;;;;5051316;28;19909;-74
2022/07/29 13:20:18;;;;;;;;;;;18.50;99.90;;;;;;5050241;28;20273;-74
2022/07/29 13:22:47;;;;;;;;;;;18.70;99.90;;;;;;5051314;28;19909;-74
2022/07/29 13:25:12;;;;;;;;;;;18.90;99.90;;;;;;5048333;28;19947;-75
2022/07/29 13:27:38;;;;;;;;;;;18.80;99.90;;;;;;5051676;28;19908;-74
2022/07/29 13:30:05;;;;;;;;;;;18.60;99.90;;;;;;5050476;28;19967;-75
2022/07/29 13:32:31;;;;;;;;;;;19.00;99.90;;;;;;5049160;28;19916;-74
2022/07/29 13:34:58;;;;;;;;;;;19.50;99.90;;;;;;5050816;28;19951;-74
2022/07/29 13:37:24;;;;;;;;;;;19.60;99.90;;;;;;5050474;28;19913;-74
2022/07/29 13:39:49;;;;;;;;;;;19.90;99.90;;;;;;5052217;28;19917;-74
2022/07/29 13:42:15;;;;;;;;;;;20.10;99.90;;;;;;5044655;28;19919;-74
2022/07/29 13:44:40;;;;;;;;;;;20.00;99.90;;;;;;5053881;28;19908;-74
2022/07/29 13:47:06;;;;;;;;;;;20.40;99.90;;;;;;5045195;28;19917;-74
2022/07/29 13:49:32;;;;;;;;;;;21.00;99.90;;;;;;5054255;28;20439;-74
2022/07/29 13:51:57;;;;;;;;;;;21.20;99.90;;;;;;5050398;28;19980;-75
2022/07/29 13:54:23;;;;;;;;;;;21.50;99.90;;;;;;5050936;28;19908;-75
2022/07/29 13:56:49;;;;;;;;;;;21.70;99.90;;;;;;5051549;28;19909;-75
2022/07/29 13:59:15;;;;;;;;;;;21.70;99.90;;;;;;5048018;28;19948;-74
2022/07/29 14:01:41;;;;;;;;;;;21.80;99.90;;;;;;5046140;28;19909;-74
2022/07/29 14:04:07;;;;;;;;;;;21.90;99.90;;;;;;5056042;28;20463;-74
2022/07/29 14:06:33;;;;;;;;;;;21.90;99.90;;;;;;5051476;28;20286;-75
2022/07/29 14:08:59;;;;;;;;;;;22.10;99.90;;;;;;5051744;28;19921;-76
2022/07/29 14:11:24;;;;;;;;;;;22.50;99.90;;;;;;5050356;28;20539;-74
2022/07/29 14:13:50;;;;;;;;;;;22.50;99.90;;;;;;5054461;28;19916;-75
2022/07/29 14:16:15;;;;;;;;;;;22.40;99.90;;;;;;5055005;28;19920;-74
2022/07/29 14:18:41;;;;;;;;;;;22.60;99.90;;;;;;5056055;28;19909;-75
2022/07/29 14:21:06;;;;;;;;;;;22.80;99.90;;;;;;5055084;28;19909;-74